Charlotte Roush — WDE5112 — position and weather

sailwx.info

Track history (hours):
 
Tides and Currents Weather Stations Pressure Air Temp Water Temp Dewpoint Dewpoint Depression Visibility Wind Speed Wind Dir Waves Ship Positions

Charlotte Roush

Owner: AEP River Operations LLC, Chesterfield, MO. More information available from US FCC via Universal Licensing System and Coast Guard Vessel Documentation Center.

Last reported at 2016-Jul-24 23:33 UTC. Time now 2016-Jul-29 02:12 UTC.
Position N 29°56' W 090°12'.

Length 35 m; draft 3 m.

Type: Towing. MMSI: 367362230.

Date/timePositionNaut miles runAvg speedWind from/ knotsBaromVisibWave heightAir tempDewpointWater temp
2016-Jul-24 23:33N 29°56' W 090°12'1 0.5
2016-Jul-24 22:31N 29°56' W 090°11'3 2.9
2016-Jul-24 21:34N 29°57' W 090°08'4 4.0
2016-Jul-24 20:33N 29°55' W 090°04'3 2.9
2016-Jul-24 19:33N 29°57' W 090°02'5 4.5
2016-Jul-24 18:33N 29°55' W 089°57'1 0.7
2016-Jul-24 17:19N 29°55' W 089°56'5 7.0
2016-Jul-24 16:32N 29°57' W 090°02'6 6.0
2016-Jul-24 15:33N 29°56' W 090°08'3 2.9
2016-Jul-24 14:33N 29°56' W 090°12'0 0.0
2016-Jul-24 13:33N 29°56' W 090°12'1 0.0
2016-Jul-23 10:15N 29°56' W 090°13'2 1.3
2016-Jul-23 08:30N 29°56' W 090°10'2 2.4
2016-Jul-23 07:33N 29°55' W 090°08'4 3.9
2016-Jul-23 06:33N 29°56' W 090°04'4 1.8
2016-Jul-23 04:33N 29°56' W 089°60'6 4.0
2016-Jul-23 03:07N 29°52' W 089°55'3 5.1
2016-Jul-23 02:33N 29°53' W 089°58'3 1.6
2016-Jul-23 00:30N 29°50' W 089°60'5 5.1
2016-Jul-22 23:28N 29°52' W 089°54'5 5.3
2016-Jul-22 22:33N 29°55' W 089°58'4 4.4
2016-Jul-22 21:33N 29°56' W 090°03'4 4.2
2016-Jul-22 20:33N 29°57' W 090°08'2 2.4
2016-Jul-22 19:33N 29°56' W 090°11'0 0.1
2016-Jul-22 18:33N 29°56' W 090°11'1 0.7
2016-Jul-22 17:33N 29°57' W 090°10'2 2.2
2016-Jul-22 16:33N 29°55' W 090°08'4 3.7
2016-Jul-22 15:33N 29°56' W 090°04'3 3.0
2016-Jul-22 14:33N 29°57' W 090°01'4 3.9
2016-Jul-22 13:33N 29°55' W 089°57'4 3.2
2016-Jul-22 12:26N 29°52' W 089°55'3 3.3
2016-Jul-22 11:33N 29°52' W 089°58'5 4.4
2016-Jul-22 10:29N 29°47' W 090°01'3 0.3
2016-Jul-21 23:16N 29°44' W 090°00'4 5.4
2016-Jul-21 22:26N 29°49' W 090°00'5 5.5
2016-Jul-21 21:33N 29°53' W 089°57'3 2.7
2016-Jul-21 20:30N 29°55' W 089°56'5 4.9
2016-Jul-21 19:33N 29°56' W 090°01'2 1.5
2016-Jul-21 18:33N 29°57' W 090°02'5 4.7
2016-Jul-21 17:33N 29°54' W 090°06'4 3.7
2016-Jul-21 16:27N 29°56' W 090°11'1 0.7
2016-Jul-21 15:33N 29°56' W 090°11'0 0.0
2016-Jul-21 14:32N 29°56' W 090°11'1 0.0
2016-Jul-20 00:31N 29°56' W 090°13'3 3.5
2016-Jul-19 23:33N 29°57' W 090°10'3 3.4
2016-Jul-19 22:34N 29°55' W 090°07'4 3.7
2016-Jul-19 21:33N 29°57' W 090°04'2 2.1
2016-Jul-19 20:33N 29°57' W 090°01'1 0.9
2016-Jul-19 19:33N 29°56' W 090°00'4 4.1
2016-Jul-19 18:33N 29°55' W 089°56'0 0.0
2016-Jul-19 17:33N 29°55' W 089°56'0 0.0
2016-Jul-19 16:33N 29°55' W 089°56'0 0.1
2016-Jul-19 15:33N 29°55' W 089°56'0 0.4
2016-Jul-19 14:33N 29°55' W 089°56'3 3.3
2016-Jul-19 13:33N 29°56' W 089°59'4 3.5
2016-Jul-19 12:33N 29°56' W 090°03'4 4.2
2016-Jul-19 11:33N 29°56' W 090°08'3 2.8
2016-Jul-19 10:33N 29°56' W 090°11'  
2016-Jul-16 12:21N 29°60' W 090°26'4 5.3
2016-Jul-16 11:33N 29°57' W 090°23'1 0.1
2016-Jul-15 14:17N 29°56' W 090°22'  
Track history (hours):
 
Tides and Currents Weather Stations Pressure Air Temp Water Temp Dewpoint Dewpoint Depression Visibility Wind Speed Wind Dir Waves Ship Positions

Charlotte Roush

Owner: AEP River Operations LLC, Chesterfield, MO. More information available from US FCC via Universal Licensing System and Coast Guard Vessel Documentation Center.

Last reported at 2016-Jul-24 23:33 UTC. Time now 2016-Jul-29 02:12 UTC.
Position N 29°56' W 090°12'.

Length 35 m; draft 3 m.

Type: Towing. MMSI: 367362230.

Date/timePositionNaut miles runAvg speedWind from/ knotsBaromVisibWave heightAir tempDewpointWater temp
2016-Jul-24 23:33N 29°56' W 090°12'1 0.5
2016-Jul-24 22:31N 29°56' W 090°11'3 2.9
2016-Jul-24 21:34N 29°57' W 090°08'4 4.0
2016-Jul-24 20:33N 29°55' W 090°04'3 2.9
2016-Jul-24 19:33N 29°57' W 090°02'5 4.5
2016-Jul-24 18:33N 29°55' W 089°57'1 0.7
2016-Jul-24 17:19N 29°55' W 089°56'5 7.0
2016-Jul-24 16:32N 29°57' W 090°02'6 6.0
2016-Jul-24 15:33N 29°56' W 090°08'3 2.9
2016-Jul-24 14:33N 29°56' W 090°12'0 0.0
2016-Jul-24 13:33N 29°56' W 090°12'1 0.0
2016-Jul-23 10:15N 29°56' W 090°13'2 1.3
2016-Jul-23 08:30N 29°56' W 090°10'2 2.4
2016-Jul-23 07:33N 29°55' W 090°08'4 3.9
2016-Jul-23 06:33N 29°56' W 090°04'4 1.8
2016-Jul-23 04:33N 29°56' W 089°60'6 4.0
2016-Jul-23 03:07N 29°52' W 089°55'3 5.1
2016-Jul-23 02:33N 29°53' W 089°58'3 1.6
2016-Jul-23 00:30N 29°50' W 089°60'5 5.1
2016-Jul-22 23:28N 29°52' W 089°54'5 5.3
2016-Jul-22 22:33N 29°55' W 089°58'4 4.4
2016-Jul-22 21:33N 29°56' W 090°03'4 4.2
2016-Jul-22 20:33N 29°57' W 090°08'2 2.4
2016-Jul-22 19:33N 29°56' W 090°11'0 0.1
2016-Jul-22 18:33N 29°56' W 090°11'1 0.7
2016-Jul-22 17:33N 29°57' W 090°10'2 2.2
2016-Jul-22 16:33N 29°55' W 090°08'4 3.7
2016-Jul-22 15:33N 29°56' W 090°04'3 3.0
2016-Jul-22 14:33N 29°57' W 090°01'4 3.9
2016-Jul-22 13:33N 29°55' W 089°57'4 3.2
2016-Jul-22 12:26N 29°52' W 089°55'3 3.3
2016-Jul-22 11:33N 29°52' W 089°58'5 4.4
2016-Jul-22 10:29N 29°47' W 090°01'3 0.3
2016-Jul-21 23:16N 29°44' W 090°00'4 5.4
2016-Jul-21 22:26N 29°49' W 090°00'5 5.5
2016-Jul-21 21:33N 29°53' W 089°57'3 2.7
2016-Jul-21 20:30N 29°55' W 089°56'5 4.9
2016-Jul-21 19:33N 29°56' W 090°01'2 1.5
2016-Jul-21 18:33N 29°57' W 090°02'5 4.7
2016-Jul-21 17:33N 29°54' W 090°06'4 3.7
2016-Jul-21 16:27N 29°56' W 090°11'1 0.7
2016-Jul-21 15:33N 29°56' W 090°11'0 0.0
2016-Jul-21 14:32N 29°56' W 090°11'1 0.0
2016-Jul-20 00:31N 29°56' W 090°13'3 3.5
2016-Jul-19 23:33N 29°57' W 090°10'3 3.4
2016-Jul-19 22:34N 29°55' W 090°07'4 3.7
2016-Jul-19 21:33N 29°57' W 090°04'2 2.1
2016-Jul-19 20:33N 29°57' W 090°01'1 0.9
2016-Jul-19 19:33N 29°56' W 090°00'4 4.1
2016-Jul-19 18:33N 29°55' W 089°56'0 0.0
2016-Jul-19 17:33N 29°55' W 089°56'0 0.0
2016-Jul-19 16:33N 29°55' W 089°56'0 0.1
2016-Jul-19 15:33N 29°55' W 089°56'0 0.4
2016-Jul-19 14:33N 29°55' W 089°56'3 3.3
2016-Jul-19 13:33N 29°56' W 089°59'4 3.5
2016-Jul-19 12:33N 29°56' W 090°03'4 4.2
2016-Jul-19 11:33N 29°56' W 090°08'3 2.8
2016-Jul-19 10:33N 29°56' W 090°11'  
2016-Jul-16 12:21N 29°60' W 090°26'4 5.3
2016-Jul-16 11:33N 29°57' W 090°23'1 0.1
2016-Jul-15 14:17N 29°56' W 090°22'  

Dump ship's entire track history